Time;durP1;ratioP1;P1;durP2;ratioP2;P2;SDS_P1;SDS_P2;PMS_P1;PMS_P2;Temp;Humidity;BMP_temperature;BMP_pressure;BME280_temperature;BME280_humidity;BME280_pressure;Samples;Min_cycle;Max_cycle;Signal;HPM_P1;HPM_P2
2023/08/26 00:00:44;;;;;;;2.92;2.22;;;22.40;99.90;;;;;;6272604;22;20011;-67
2023/08/26 00:03:30;;;;;;;5.63;2.15;;;22.40;99.90;;;;;;6272658;22;20430;-67
2023/08/26 00:06:16;;;;;;;3.42;2.30;;;22.50;99.90;;;;;;6251084;22;20033;-67
2023/08/26 00:09:02;;;;;;;3.85;2.05;;;22.50;99.90;;;;;;6272396;22;20011;-68
2023/08/26 00:11:49;;;;;;;3.60;2.15;;;22.50;99.90;;;;;;6272720;22;20030;-67
2023/08/26 00:14:35;;;;;;;4.38;1.90;;;22.60;99.90;;;;;;6271447;22;20000;-67
2023/08/26 00:17:21;;;;;;;3.17;1.80;;;22.60;99.90;;;;;;6272728;22;20012;-66
2023/08/26 00:20:09;;;;;;;5.97;2.28;;;22.50;99.90;;;;;;6273765;22;20016;-66
2023/08/26 00:22:55;;;;;;;4.00;1.80;;;22.60;99.90;;;;;;6271700;22;20324;-66
2023/08/26 00:25:40;;;;;;;4.57;2.10;;;22.50;99.90;;;;;;6272510;22;20031;-67
2023/08/26 00:28:26;;;;;;;2.17;1.70;;;22.50;99.90;;;;;;6272752;22;20046;-67
2023/08/26 00:31:13;;;;;;;3.50;1.80;;;22.50;99.90;;;;;;6272162;22;20086;-66
2023/08/26 00:34:02;;;;;;;3.65;1.90;;;22.50;99.90;;;;;;6272714;22;20501;-66
2023/08/26 00:36:48;;;;;;;4.63;2.03;;;22.50;99.90;;;;;;6274612;22;20023;-66
2023/08/26 00:39:34;;;;;;;3.50;2.10;;;22.50;99.90;;;;;;6274538;22;20442;-66
2023/08/26 00:42:20;;;;;;;2.70;1.80;;;22.50;99.90;;;;;;6275212;22;20018;-66
2023/08/26 00:45:06;;;;;;;3.90;1.92;;;22.50;99.90;;;;;;6270616;22;20008;-66
2023/08/26 00:47:52;;;;;;;3.42;1.80;;;22.50;99.90;;;;;;6274381;22;20016;-67
2023/08/26 00:50:40;;;;;;;6.63;1.92;;;22.50;99.90;;;;;;6274499;22;20527;-66
2023/08/26 00:53:26;;;;;;;3.17;2.17;;;22.50;99.90;;;;;;6274340;22;20337;-66
2023/08/26 00:56:12;;;;;;;4.68;2.08;;;22.50;99.80;;;;;;6274903;22;20003;-67
2023/08/26 00:58:58;;;;;;;7.47;4.38;;;22.50;99.80;;;;;;6274464;22;20083;-66
2023/08/26 01:01:45;;;;;;;6.00;3.53;;;22.50;99.80;;;;;;6252483;22;20050;-66
2023/08/26 01:04:32;;;;;;;7.63;4.50;;;22.50;99.80;;;;;;6274674;22;20117;-66
2023/08/26 01:07:18;;;;;;;5.57;3.28;;;22.50;99.80;;;;;;6274097;22;20446;-66
2023/08/26 01:10:05;;;;;;;4.28;2.65;;;22.50;99.80;;;;;;6274099;22;20054;-66
2023/08/26 01:13:14;;;;;;;4.80;2.85;;;22.50;99.80;;;;;;6273369;22;20012;-67
2023/08/26 01:16:02;;;;;;;7.03;2.55;;;22.50;99.80;;;;;;6272137;22;20111;-67
2023/08/26 01:18:49;;;;;;;4.88;2.50;;;22.40;99.90;;;;;;6272739;22;20444;-67
2023/08/26 01:21:37;;;;;;;2.78;2.00;;;22.40;99.80;;;;;;6274855;22;20004;-67
2023/08/26 01:24:25;;;;;;;2.88;1.90;;;22.40;99.90;;;;;;6274796;22;20046;-67
2023/08/26 01:27:10;;;;;;;4.50;1.88;;;22.40;99.90;;;;;;6273420;22;20007;-67
2023/08/26 01:29:57;;;;;;;4.78;2.08;;;22.40;99.90;;;;;;6275326;22;20081;-67
2023/08/26 01:32:57;;;;;;;2.67;2.13;;;22.40;99.90;;;;;;6273379;22;20464;-67
2023/08/26 01:35:47;;;;;;;4.50;1.95;;;22.40;99.90;;;;;;6273033;22;20337;-67
2023/08/26 01:38:33;;;;;;;2.90;1.90;;;22.30;99.90;;;;;;6274937;22;20018;-67
2023/08/26 01:41:21;;;;;;;4.22;2.08;;;22.30;99.90;;;;;;6274088;22;20043;-66
2023/08/26 01:44:07;;;;;;;2.70;1.90;;;22.30;99.90;;;;;;6274272;22;20063;-67
2023/08/26 01:46:54;;;;;;;3.22;2.20;;;22.30;99.90;;;;;;6271748;22;20000;-67
2023/08/26 01:49:40;;;;;;;4.28;2.20;;;22.30;99.90;;;;;;6274359;22;20549;-67
2023/08/26 01:52:26;;;;;;;4.13;2.20;;;22.30;99.90;;;;;;6272866;22;20111;-67
2023/08/26 01:55:12;;;;;;;2.50;1.80;;;22.30;99.90;;;;;;6274758;22;20326;-66
2023/08/26 01:57:58;;;;;;;3.97;2.10;;;22.30;99.90;;;;;;6273207;22;20035;-67
2023/08/26 02:00:44;;;;;;;2.63;1.80;;;22.30;99.90;;;;;;6274237;22;20459;-68
2023/08/26 02:03:30;;;;;;;3.53;1.98;;;22.20;99.80;;;;;;6274031;22;20007;-68
2023/08/26 02:06:16;;;;;;;2.67;1.90;;;22.20;99.80;;;;;;6275599;22;20087;-67
2023/08/26 02:09:02;;;;;;;5.22;2.03;;;22.20;99.90;;;;;;6274190;22;20035;-68
2023/08/26 02:11:48;;;;;;;5.55;2.17;;;22.20;99.90;;;;;;6274136;22;20027;-68
2023/08/26 02:14:33;;;;;;;3.17;1.90;;;22.20;99.90;;;;;;6274380;22;20007;-68
2023/08/26 02:17:19;;;;;;;4.72;1.50;;;22.10;99.90;;;;;;6272868;22;20008;-67
2023/08/26 02:20:07;;;;;;;2.17;1.50;;;22.10;99.90;;;;;;6274026;22;20434;-67
2023/08/26 02:22:53;;;;;;;3.05;1.70;;;22.10;99.90;;;;;;6273836;22;20011;-67
2023/08/26 02:25:39;;;;;;;3.97;1.88;;;22.10;99.90;;;;;;6273631;22;20018;-67
2023/08/26 02:28:25;;;;;;;4.72;1.83;;;22.10;99.90;;;;;;6271542;22;20011;-68
2023/08/26 02:31:11;;;;;;;3.35;1.73;;;22.10;99.90;;;;;;6273091;22;20100;-67
2023/08/26 02:33:57;;;;;;;2.97;1.73;;;22.10;99.90;;;;;;6274326;22;20162;-66
2023/08/26 02:36:43;;;;;;;2.53;2.05;;;22.10;99.90;;;;;;6273303;22;20039;-66
2023/08/26 02:39:28;;;;;;;2.92;1.55;;;22.00;99.90;;;;;;6273897;22;20517;-69
2023/08/26 02:42:14;;;;;;;2.40;1.73;;;22.00;99.90;;;;;;6274448;22;20333;-69
2023/08/26 02:45:00;;;;;;;3.97;2.00;;;22.00;99.90;;;;;;6272950;22;20035;-68
2023/08/26 02:47:46;;;;;;;4.15;2.40;;;22.00;99.90;;;;;;6272144;22;20022;-69
2023/08/26 02:50:34;;;;;;;5.65;1.77;;;22.00;99.90;;;;;;6273905;22;20010;-69
2023/08/26 02:53:20;;;;;;;4.43;2.15;;;21.90;99.90;;;;;;6251140;22;20027;-69
2023/08/26 02:56:06;;;;;;;3.92;2.00;;;21.90;99.90;;;;;;6274105;22;20019;-68
2023/08/26 02:58:51;;;;;;;4.13;1.65;;;21.90;99.90;;;;;;6270484;22;20129;-69
2023/08/26 03:01:38;;;;;;;3.25;2.10;;;21.90;99.90;;;;;;6274436;22;20017;-68
2023/08/26 03:04:24;;;;;;;5.18;2.10;;;21.90;99.90;;;;;;6274986;22;20035;-69
2023/08/26 03:07:11;;;;;;;3.17;1.95;;;21.90;99.90;;;;;;6274132;22;20018;-69
2023/08/26 03:09:57;;;;;;;4.10;1.88;;;21.90;99.90;;;;;;6272868;22;20430;-68
2023/08/26 03:12:43;;;;;;;5.70;2.03;;;21.90;99.90;;;;;;6270614;22;20024;-68
2023/08/26 03:15:29;;;;;;;4.70;2.53;;;21.90;99.90;;;;;;6273613;22;20043;-69
2023/08/26 03:18:15;;;;;;;2.92;1.60;;;21.90;99.90;;;;;;6273546;22;20376;-69
2023/08/26 03:21:10;;;;;;;3.08;1.90;;;21.90;99.90;;;;;;6273229;22;20003;-69
2023/08/26 03:23:56;;;;;;;4.03;2.08;;;21.90;99.90;;;;;;6273018;22;20016;-69
2023/08/26 03:26:43;;;;;;;2.97;1.75;;;21.80;99.90;;;;;;6273477;22;20004;-68
2023/08/26 03:29:29;;;;;;;2.42;1.67;;;21.80;99.90;;;;;;6271005;22;20008;-69
2023/08/26 03:32:15;;;;;;;4.55;1.85;;;21.80;99.90;;;;;;6273100;22;20019;-68
2023/08/26 03:35:01;;;;;;;3.28;2.00;;;21.90;99.90;;;;;;6272546;22;20018;-69
2023/08/26 03:37:46;;;;;;;5.20;2.03;;;21.80;99.90;;;;;;6272843;22;20007;-69
2023/08/26 03:40:33;;;;;;;3.08;2.00;;;21.80;99.90;;;;;;6272915;22;20353;-69
2023/08/26 03:43:19;;;;;;;5.55;2.13;;;21.80;99.90;;;;;;6271208;22;20453;-67
2023/08/26 03:46:05;;;;;;;2.83;1.95;;;21.80;99.90;;;;;;6273680;22;20437;-69
2023/08/26 03:48:51;;;;;;;5.38;2.15;;;21.80;99.90;;;;;;6272597;22;20015;-69
2023/08/26 03:51:37;;;;;;;2.97;1.92;;;21.80;99.90;;;;;;6271685;22;20318;-69
2023/08/26 03:54:23;;;;;;;3.30;2.00;;;21.80;99.90;;;;;;6273279;22;20318;-69
2023/08/26 03:57:09;;;;;;;2.85;1.95;;;21.80;99.90;;;;;;6273462;22;20047;-70
2023/08/26 03:59:55;;;;;;;3.58;2.08;;;21.80;99.90;;;;;;6273044;22;20460;-69
2023/08/26 04:02:41;;;;;;;5.70;2.30;;;21.80;99.90;;;;;;6273061;22;20352;-69
2023/08/26 04:05:27;;;;;;;4.10;2.03;;;21.80;99.90;;;;;;6272609;22;20007;-70
2023/08/26 04:08:13;;;;;;;2.60;2.00;;;21.80;99.90;;;;;;6272850;22;20341;-70
2023/08/26 04:11:00;;;;;;;4.68;2.10;;;21.80;99.90;;;;;;6272975;22;20748;-67
2023/08/26 04:13:45;;;;;;;4.20;2.40;;;21.80;99.90;;;;;;6271788;22;20012;-67
2023/08/26 04:16:31;;;;;;;4.15;2.25;;;21.80;99.90;;;;;;6273440;22;20042;-67
2023/08/26 04:19:18;;;;;;;5.32;2.83;;;21.70;99.90;;;;;;6272430;22;20011;-67
2023/08/26 04:22:04;;;;;;;3.17;2.13;;;21.70;99.90;;;;;;6272690;22;20024;-67
2023/08/26 04:24:50;;;;;;;3.92;2.20;;;21.70;99.90;;;;;;6271909;22;20011;-77
2023/08/26 04:27:36;;;;;;;4.10;2.30;;;21.70;99.90;;;;;;6270020;22;20011;-77
2023/08/26 04:30:22;;;;;;;4.20;1.95;;;21.70;99.90;;;;;;6272449;22;20038;-77
2023/08/26 04:33:08;;;;;;;4.25;2.35;;;21.70;99.90;;;;;;6272232;22;20030;-78
2023/08/26 04:35:54;;;;;;;4.28;2.17;;;21.70;99.90;;;;;;6273545;22;20004;-79
2023/08/26 04:38:40;;;;;;;3.65;1.95;;;21.70;99.90;;;;;;6272811;22;20579;-78
2023/08/26 04:41:26;;;;;;;5.40;2.75;;;21.70;99.90;;;;;;6270368;22;20412;-78
2023/08/26 04:44:12;;;;;;;5.22;2.38;;;21.70;99.90;;;;;;6272546;22;20338;-80
2023/08/26 04:46:58;;;;;;;3.88;2.35;;;21.70;99.90;;;;;;6273131;22;20016;-81
2023/08/26 04:49:44;;;;;;;4.15;2.42;;;21.70;99.90;;;;;;6273877;22;20014;-67
2023/08/26 04:52:30;;;;;;;3.22;1.95;;;21.70;99.90;;;;;;6272967;22;20019;-67
2023/08/26 04:55:16;;;;;;;5.05;2.35;;;21.80;99.90;;;;;;6273387;22;20369;-68
2023/08/26 04:58:02;;;;;;;4.55;2.20;;;21.80;99.90;;;;;;6272443;22;20039;-68
2023/08/26 05:00:48;;;;;;;4.20;2.53;;;21.70;99.90;;;;;;6250209;22;20099;-69
2023/08/26 05:03:35;;;;;;;10.10;2.30;;;21.80;99.90;;;;;;6272882;22;20066;-68
2023/08/26 05:06:21;;;;;;;3.53;2.15;;;21.90;99.90;;;;;;6272719;22;20029;-68
2023/08/26 05:09:07;;;;;;;3.92;2.47;;;21.90;99.90;;;;;;6270233;22;20018;-67
2023/08/26 05:11:55;;;;;;;4.47;2.47;;;21.90;99.90;;;;;;6272576;22;20066;-67
2023/08/26 05:14:41;;;;;;;6.95;2.83;;;21.90;99.90;;;;;;6272846;22;20004;-67
2023/08/26 05:17:27;;;;;;;5.60;2.60;;;21.90;99.90;;;;;;6271558;22;20011;-67
2023/08/26 05:20:13;;;;;;;5.32;3.05;;;21.90;99.90;;;;;;6271743;22;20039;-67
2023/08/26 05:22:59;;;;;;;4.65;3.03;;;21.90;99.90;;;;;;6251370;22;20023;-67
2023/08/26 05:25:45;;;;;;;5.55;2.20;;;21.90;99.90;;;;;;6274200;22;20448;-67
2023/08/26 05:28:31;;;;;;;5.25;2.50;;;21.90;99.90;;;;;;6272829;22;20008;-67
2023/08/26 05:31:17;;;;;;;4.45;2.55;;;22.00;99.90;;;;;;6275760;22;20457;-67
2023/08/26 05:34:03;;;;;;;4.85;2.53;;;21.90;99.90;;;;;;6273362;22;20090;-67
2023/08/26 05:36:49;;;;;;;4.32;2.53;;;22.00;99.90;;;;;;6270827;22;20011;-67
2023/08/26 05:39:35;;;;;;;5.05;2.15;;;22.00;99.90;;;;;;6274572;22;20020;-67
2023/08/26 05:42:21;;;;;;;4.57;2.10;;;22.00;99.90;;;;;;6274562;22;20016;-67
2023/08/26 05:45:07;;;;;;;4.03;2.35;;;22.00;99.90;;;;;;6273635;22;20004;-67
2023/08/26 05:47:54;;;;;;;4.40;3.08;;;22.10;99.90;;;;;;6274456;22;20008;-67
2023/08/26 05:50:40;;;;;;;5.18;2.88;;;22.10;99.90;;;;;;6274281;22;20014;-67
2023/08/26 05:53:29;;;;;;;3.38;2.67;;;22.10;99.90;;;;;;6274088;22;20059;-67
2023/08/26 05:56:15;;;;;;;6.30;2.70;;;22.10;99.90;;;;;;6272846;22;20086;-67
2023/08/26 05:59:01;;;;;;;4.22;3.08;;;22.10;99.90;;;;;;6272341;22;20012;-67
2023/08/26 06:01:47;;;;;;;5.53;2.97;;;22.10;99.90;;;;;;6274387;22;20087;-67
2023/08/26 06:04:33;;;;;;;5.05;3.10;;;22.10;99.90;;;;;;6273771;22;20012;-67
2023/08/26 06:07:19;;;;;;;4.75;2.85;;;22.20;99.90;;;;;;6252313;22;20019;-67
2023/08/26 06:10:05;;;;;;;4.50;2.15;;;22.20;99.90;;;;;;6273800;22;20004;-67
2023/08/26 06:12:51;;;;;;;8.90;2.85;;;22.20;99.90;;;;;;6273053;22;20019;-67
2023/08/26 06:15:38;;;;;;;5.38;3.15;;;22.20;99.90;;;;;;6274541;22;20035;-84
2023/08/26 06:18:25;;;;;;;11.02;2.75;;;22.20;99.90;;;;;;6274126;22;20067;-84
2023/08/26 06:21:11;;;;;;;4.40;3.03;;;22.30;99.90;;;;;;6273114;22;20008;-84
2023/08/26 06:23:57;;;;;;;5.13;2.55;;;22.30;99.90;;;;;;6284261;22;19996;-83
2023/08/26 06:26:44;;;;;;;3.65;2.38;;;22.30;99.90;;;;;;6297955;22;20377;-82
2023/08/26 06:29:30;;;;;;;6.20;3.10;;;22.30;99.90;;;;;;6298480;22;20035;-83
2023/08/26 06:32:16;;;;;;;5.13;2.88;;;22.40;99.90;;;;;;6280791;22;20086;-84
2023/08/26 06:35:04;;;;;;;5.65;3.03;;;22.40;99.90;;;;;;6286703;22;20004;-84
2023/08/26 06:37:50;;;;;;;3.58;2.65;;;22.40;99.90;;;;;;6257913;22;20098;-85
2023/08/26 06:40:36;;;;;;;7.18;3.63;;;22.50;99.90;;;;;;6274228;22;20505;-84
2023/08/26 06:43:22;;;;;;;6.70;3.70;;;22.50;99.90;;;;;;6274902;22;20043;-84
2023/08/26 06:46:08;;;;;;;4.95;2.95;;;22.50;99.90;;;;;;6272726;22;20011;-84
2023/08/26 06:48:54;;;;;;;4.57;3.33;;;22.50;99.90;;;;;;6273428;22;20083;-86
2023/08/26 06:51:40;;;;;;;5.45;3.30;;;22.50;99.90;;;;;;6272755;22;20003;-82
2023/08/26 06:54:26;;;;;;;8.00;3.78;;;22.60;99.90;;;;;;6273896;22;20038;-84
2023/08/26 06:57:12;;;;;;;5.28;2.97;;;22.60;99.90;;;;;;6273584;22;20434;-85
2023/08/26 06:59:58;;;;;;;7.82;3.00;;;22.60;99.90;;;;;;6274286;22;20034;-86
2023/08/26 07:02:44;;;;;;;7.00;3.05;;;22.60;99.90;;;;;;6251197;22;20031;-85
2023/08/26 07:05:30;;;;;;;7.60;3.55;;;22.70;99.90;;;;;;6274596;22;20018;-86
2023/08/26 07:08:17;;;;;;;6.68;3.58;;;22.70;99.90;;;;;;6273308;22;20014;-83
2023/08/26 07:11:03;;;;;;;8.27;3.38;;;22.70;99.90;;;;;;6273757;22;20043;-82
2023/08/26 07:13:49;;;;;;;4.28;2.70;;;22.80;99.90;;;;;;6272908;22;20508;-84
2023/08/26 07:16:35;;;;;;;9.73;4.72;;;22.80;99.90;;;;;;6272760;22;20008;-82
2023/08/26 07:19:21;;;;;;;7.13;3.55;;;22.80;99.90;;;;;;6273934;22;20012;-83
2023/08/26 07:22:07;;;;;;;5.63;2.78;;;22.90;99.90;;;;;;6272324;22;20012;-81
2023/08/26 07:24:53;;;;;;;6.15;3.13;;;23.00;99.90;;;;;;6250431;22;20039;-75
2023/08/26 07:27:40;;;;;;;5.07;3.63;;;23.00;99.90;;;;;;6272896;22;20015;-73
2023/08/26 07:30:29;;;;;;;4.93;3.20;;;23.10;99.90;;;;;;6271177;22;20012;-73
2023/08/26 07:33:15;;;;;;;7.15;3.30;;;23.20;99.90;;;;;;6271472;22;20070;-73
2023/08/26 07:36:06;;;;;;;5.35;3.22;;;23.20;99.90;;;;;;6273048;22;20845;-73
2023/08/26 07:38:52;;;;;;;4.82;3.08;;;23.20;99.90;;;;;;6270462;22;20007;-74
2023/08/26 07:41:38;;;;;;;4.75;3.00;;;23.30;99.90;;;;;;6273609;22;20027;-74
2023/08/26 07:44:24;;;;;;;5.18;3.78;;;23.30;99.90;;;;;;6272733;22;20341;-75
2023/08/26 07:47:10;;;;;;;7.40;4.03;;;23.30;99.90;;;;;;6273321;22;20008;-74
2023/08/26 07:49:56;;;;;;;5.50;3.30;;;23.40;99.90;;;;;;6273103;22;20018;-71
2023/08/26 07:52:42;;;;;;;7.00;3.72;;;23.40;99.90;;;;;;6271879;22;20070;-73
2023/08/26 07:55:29;;;;;;;5.47;3.30;;;23.40;99.90;;;;;;6272154;22;20018;-73
2023/08/26 07:58:15;;;;;;;4.90;3.70;;;23.50;99.90;;;;;;6272100;22;20007;-73
2023/08/26 08:01:02;;;;;;;8.35;4.03;;;23.60;99.90;;;;;;6272503;22;20405;-72
2023/08/26 08:03:47;;;;;;;6.30;4.28;;;23.60;99.90;;;;;;6272935;22;20022;-73
2023/08/26 08:06:33;;;;;;;5.78;3.13;;;23.70;99.90;;;;;;6273325;22;20007;-73
2023/08/26 08:09:19;;;;;;;6.65;3.58;;;23.70;99.90;;;;;;6251104;22;20111;-73
2023/08/26 08:12:06;;;;;;;6.25;3.70;;;23.70;99.90;;;;;;6250150;22;20054;-73
2023/08/26 08:14:51;;;;;;;5.80;3.60;;;23.80;99.90;;;;;;6272453;22;20014;-73
2023/08/26 08:17:38;;;;;;;7.78;4.55;;;23.80;99.90;;;;;;6272212;22;20042;-73
2023/08/26 08:20:24;;;;;;;5.53;3.83;;;23.80;99.90;;;;;;6250440;22;20018;-73
2023/08/26 08:23:09;;;;;;;6.72;3.70;;;23.90;99.90;;;;;;6271769;22;20023;-72
2023/08/26 08:25:55;;;;;;;6.40;4.05;;;23.90;99.90;;;;;;6272619;22;20441;-72
2023/08/26 08:28:41;;;;;;;6.22;3.88;;;24.00;99.90;;;;;;6272306;22;20392;-75
2023/08/26 08:31:27;;;;;;;5.65;3.88;;;24.00;99.90;;;;;;6272882;22;20007;-73
2023/08/26 08:34:13;;;;;;;5.53;3.80;;;24.10;99.90;;;;;;6272976;22;20066;-73
2023/08/26 08:36:59;;;;;;;7.13;4.28;;;24.10;99.90;;;;;;6272987;22;20460;-73
2023/08/26 08:39:45;;;;;;;8.60;4.85;;;24.20;99.90;;;;;;6272438;22;20421;-73
2023/08/26 08:42:34;;;;;;;7.57;5.28;;;24.20;99.90;;;;;;6272454;22;20386;-73
2023/08/26 08:45:21;;;;;;;6.75;4.82;;;24.30;99.90;;;;;;6250290;22;20008;-73
2023/08/26 08:48:07;;;;;;;11.63;5.55;;;24.40;99.90;;;;;;6272967;22;20033;-73
2023/08/26 08:50:54;;;;;;;7.15;4.57;;;24.50;99.90;;;;;;6250471;22;20102;-73
2023/08/26 08:53:49;;;;;;;6.57;4.30;;;24.60;99.90;;;;;;6273050;22;20033;-73
2023/08/26 08:56:36;;;;;;;;;;;24.70;99.90;;;;;;6271995;22;20008;-73
2023/08/26 08:59:22;;;;;;;6.47;4.13;;;24.70;99.90;;;;;;6270833;22;19899;-73
2023/08/26 09:02:11;;;;;;;7.97;4.72;;;24.80;99.90;;;;;;6271321;22;20012;-73
2023/08/26 09:04:58;;;;;;;10.93;5.03;;;24.80;99.90;;;;;;6274819;22;20306;-73
2023/08/26 09:07:44;;;;;;;4.85;3.35;;;24.90;99.90;;;;;;6274635;22;20047;-73
2023/08/26 09:10:31;;;;;;;6.07;4.10;;;24.80;99.90;;;;;;6275171;22;20094;-73
2023/08/26 09:13:17;;;;;;;10.80;4.53;;;24.80;99.90;;;;;;6275980;22;20011;-73
2023/08/26 09:16:04;;;;;;;6.97;3.53;;;24.80;99.90;;;;;;6274260;22;20011;-72
2023/08/26 09:18:56;;;;;;;4.78;3.17;;;24.80;99.90;;;;;;6273874;22;20018;-72
2023/08/26 09:21:45;;;;;;;6.97;3.55;;;24.80;99.90;;;;;;6271769;22;20437;-72
2023/08/26 09:24:31;;;;;;;5.03;3.70;;;24.90;99.90;;;;;;6269187;22;20004;-72
2023/08/26 09:27:17;;;;;;;4.70;3.42;;;24.90;99.90;;;;;;6273219;22;20003;-72
2023/08/26 09:30:04;;;;;;;6.53;3.75;;;25.10;99.90;;;;;;6251492;22;20467;-72
2023/08/26 09:32:52;;;;;;;6.00;3.28;;;25.10;99.90;;;;;;6272076;22;20019;-72
2023/08/26 09:35:47;;;;;;;5.65;3.50;;;25.20;99.90;;;;;;6249500;22;20015;-72
2023/08/26 09:38:50;;;;;;;4.45;2.92;;;25.30;99.90;;;;;;6271951;22;20079;-73
2023/08/26 09:41:36;;;;;;;5.22;2.70;;;25.30;99.90;;;;;;6270404;22;20024;-71
2023/08/26 09:44:22;;;;;;;5.10;3.15;;;25.40;99.90;;;;;;6272833;22;20008;-75
2023/08/26 09:47:11;;;;;;;4.63;2.92;;;25.40;99.90;;;;;;6272628;22;20019;-75
2023/08/26 09:49:58;;;;;;;4.20;3.17;;;25.50;99.90;;;;;;6274632;22;20014;-75
2023/08/26 09:52:48;;;;;;;4.70;3.00;;;25.50;99.90;;;;;;6272744;22;20046;-75
2023/08/26 09:55:35;;;;;;;5.70;3.42;;;25.60;99.90;;;;;;6273165;22;20011;-75
2023/08/26 09:58:21;;;;;;;5.32;4.00;;;25.60;99.90;;;;;;6273787;22;20019;-75
2023/08/26 10:01:07;;;;;;;9.18;4.28;;;25.70;99.90;;;;;;6273834;22;20480;-76
2023/08/26 10:04:05;;;;;;;6.88;3.78;;;25.80;99.90;;;;;;6274340;22;20012;-75
2023/08/26 10:06:58;;;;;;;4.97;3.47;;;25.90;99.80;;;;;;6272962;22;20015;-74
2023/08/26 10:09:49;;;;;;;8.30;4.22;;;25.90;99.70;;;;;;6274095;22;20019;-75
2023/08/26 10:12:44;;;;;;;4.22;3.10;;;26.00;99.50;;;;;;6250784;22;20023;-75
2023/08/26 10:15:32;;;;;;;7.43;3.80;;;26.10;99.30;;;;;;6273489;22;20346;-75
2023/08/26 10:18:29;;;;;;;4.72;3.35;;;26.20;98.90;;;;;;6274397;22;20073;-74
2023/08/26 10:21:16;;;;;;;6.55;4.15;;;26.20;98.60;;;;;;6274200;22;20004;-75
2023/08/26 10:24:03;;;;;;;11.00;4.53;;;26.30;98.70;;;;;;6274408;22;20003;-75
2023/08/26 10:26:49;;;;;;;6.22;4.10;;;26.30;98.20;;;;;;6274261;22;20011;-74
2023/08/26 10:29:36;;;;;;;11.77;3.83;;;26.30;98.10;;;;;;6273761;22;20047;-74
2023/08/26 10:32:23;;;;;;;9.40;4.40;;;26.30;97.80;;;;;;6272801;22;20346;-74
2023/08/26 10:35:14;;;;;;;6.30;4.25;;;26.30;97.60;;;;;;6271228;22;20018;-73
2023/08/26 10:38:15;;;;;;;13.70;5.18;;;26.40;97.40;;;;;;6272466;22;20099;-74
2023/08/26 10:41:10;;;;;;;6.82;4.57;;;26.40;97.00;;;;;;6273467;22;20024;-74
2023/08/26 10:44:01;;;;;;;8.18;4.18;;;26.40;97.00;;;;;;6271399;22;20011;-73
2023/08/26 10:46:56;;;;;;;6.85;4.78;;;26.40;96.90;;;;;;6273831;22;20058;-74
2023/08/26 10:49:42;;;;;;;6.75;4.60;;;26.40;96.40;;;;;;6271328;22;20050;-74
2023/08/26 10:52:33;;;;;;;7.00;4.25;;;26.40;96.30;;;;;;6273469;22;20030;-74
2023/08/26 10:55:47;;;;;;;6.63;4.72;;;26.30;96.10;;;;;;6273374;22;20014;-74
2023/08/26 10:58:50;;;;;;;6.60;4.88;;;26.30;96.20;;;;;;6272622;22;20007;-74
2023/08/26 11:01:36;;;;;;;6.30;4.65;;;26.30;96.20;;;;;;6273481;22;20008;-82
2023/08/26 11:04:22;;;;;;;10.23;4.78;;;26.30;95.90;;;;;;6273839;22;20466;-83
2023/08/26 11:07:17;;;;;;;6.40;3.97;;;26.30;95.50;;;;;;6273785;22;20015;-83
2023/08/26 11:10:03;;;;;;;;;;;26.20;95.30;;;;;;6275261;22;20039;-83
2023/08/26 11:12:49;;;;;;;6.60;3.92;;;26.10;95.80;;;;;;6272502;22;19922;-85
2023/08/26 11:15:40;;;;;;;6.25;3.92;;;26.10;95.20;;;;;;6276409;22;20010;-85
2023/08/26 11:18:26;;;;;;;8.48;4.10;;;26.10;94.90;;;;;;6272230;22;20007;-85
2023/08/26 11:21:13;;;;;;;10.20;4.28;;;26.10;94.70;;;;;;6273247;22;20004;-84
2023/08/26 11:24:01;;;;;;;6.30;3.70;;;26.20;94.60;;;;;;6273971;22;20008;-84
2023/08/26 11:26:50;;;;;;;5.88;3.85;;;26.20;94.50;;;;;;6273644;22;20015;-84
2023/08/26 11:29:38;;;;;;;5.95;3.92;;;26.20;94.50;;;;;;6273050;22;20012;-75
2023/08/26 11:32:29;;;;;;;6.15;3.25;;;26.20;94.30;;;;;;6273350;22;20353;-76
2023/08/26 11:35:15;;;;;;;5.30;3.38;;;26.30;94.20;;;;;;6251204;22;20014;-77
2023/08/26 11:38:01;;;;;;;6.43;3.85;;;26.40;93.90;;;;;;6270757;22;20051;-75
2023/08/26 11:40:47;;;;;;;5.15;3.45;;;26.40;93.30;;;;;;6272814;22;20027;-75
2023/08/26 11:43:36;;;;;;;6.03;3.42;;;26.40;93.10;;;;;;6274008;22;20837;-75
2023/08/26 11:46:22;;;;;;;5.07;2.78;;;26.40;93.10;;;;;;6248426;22;20437;-74
2023/08/26 11:49:12;;;;;;;5.60;3.80;;;26.40;93.00;;;;;;6248568;22;20019;-74
2023/08/26 11:51:59;;;;;;;6.60;3.22;;;26.40;93.00;;;;;;6272193;22;20012;-74
2023/08/26 11:54:51;;;;;;;6.22;3.20;;;26.40;92.90;;;;;;6271966;22;20019;-74
2023/08/26 11:57:40;;;;;;;6.50;3.45;;;26.40;92.60;;;;;;6273249;22;20012;-80
2023/08/26 12:00:27;;;;;;;4.13;3.05;;;26.40;92.60;;;;;;6271995;22;20014;-79
2023/08/26 12:03:13;;;;;;;4.93;3.13;;;26.40;92.40;;;;;;6273404;22;20003;-83
2023/08/26 12:06:00;;;;;;;6.50;2.90;;;26.40;92.10;;;;;;6272172;22;20027;-83
2023/08/26 12:08:51;;;;;;;4.72;2.90;;;26.40;92.00;;;;;;6271424;22;20007;-86
2023/08/26 12:11:42;;;;;;;3.60;2.90;;;26.40;92.00;;;;;;6269825;22;20061;-81
2023/08/26 12:14:31;;;;;;;5.30;3.40;;;26.50;92.00;;;;;;6270744;22;20120;-86
2023/08/26 12:17:17;;;;;;;4.22;3.10;;;26.60;92.10;;;;;;6271094;22;20018;-84
2023/08/26 12:20:17;;;;;;;6.30;3.38;;;26.70;92.20;;;;;;6270544;22;20015;-84
2023/08/26 12:23:05;;;;;;;5.65;3.28;;;26.80;91.90;;;;;;6272856;22;20019;-83
2023/08/26 12:25:51;;;;;;;5.05;2.53;;;26.80;91.90;;;;;;6275075;22;20345;-83
2023/08/26 12:28:40;;;;;;;4.85;3.10;;;26.80;91.50;;;;;;6272342;22;20011;-86
2023/08/26 12:31:27;;;;;;;5.72;2.95;;;26.80;91.20;;;;;;6273847;22;20039;-85
2023/08/26 12:34:13;;;;;;;6.35;2.55;;;26.90;91.30;;;;;;6271594;22;20019;-85
2023/08/26 12:36:59;;;;;;;5.82;2.38;;;26.90;91.20;;;;;;6272211;22;20372;-87
2023/08/26 12:39:45;;;;;;;5.20;2.30;;;26.90;90.80;;;;;;6251959;22;20476;-84
2023/08/26 12:42:34;;;;;;;6.30;2.40;;;27.00;90.70;;;;;;6251772;22;20012;-87
2023/08/26 12:45:20;;;;;;;8.32;2.60;;;27.00;90.60;;;;;;6270924;22;20018;-84
2023/08/26 12:48:06;;;;;;;3.45;2.40;;;27.10;90.40;;;;;;6272380;22;20018;-85
2023/08/26 12:50:52;;;;;;;4.85;2.88;;;27.10;90.20;;;;;;6270305;22;20011;-85
2023/08/26 12:53:44;;;;;;;5.15;2.97;;;27.20;90.20;;;;;;6274800;22;20019;-86
2023/08/26 12:56:30;;;;;;;6.35;2.30;;;27.20;90.10;;;;;;6272616;22;20018;-85
2023/08/26 12:59:16;;;;;;;10.93;2.72;;;27.30;90.00;;;;;;6272168;22;20008;-85
2023/08/26 13:02:02;;;;;;;5.82;2.88;;;27.40;89.80;;;;;;6251736;22;20016;-84
2023/08/26 13:04:48;;;;;;;4.35;2.75;;;27.40;89.60;;;;;;6251329;22;20522;-85
2023/08/26 13:07:38;;;;;;;5.70;2.63;;;27.50;89.20;;;;;;6275411;22;20007;-85
2023/08/26 13:10:24;;;;;;;4.03;2.65;;;27.50;88.80;;;;;;6273226;22;20090;-80
2023/08/26 13:13:10;;;;;;;4.20;2.70;;;27.50;88.70;;;;;;6293874;22;20026;-86
2023/08/26 13:15:56;;;;;;;3.90;2.70;;;27.50;88.60;;;;;;6298612;22;20008;-86
2023/08/26 13:18:43;;;;;;;3.58;2.45;;;27.50;88.40;;;;;;6282117;22;20011;-82
2023/08/26 13:21:29;;;;;;;5.95;2.97;;;27.50;88.20;;;;;;6282836;22;20425;-84
2023/08/26 13:24:16;;;;;;;5.75;3.22;;;27.70;88.20;;;;;;6279095;22;20337;-81
2023/08/26 13:27:03;;;;;;;5.45;2.92;;;27.70;87.90;;;;;;6276193;22;20011;-82
2023/08/26 13:29:49;;;;;;;5.65;2.92;;;27.80;87.90;;;;;;6259298;22;20012;-81
2023/08/26 13:32:35;;;;;;;4.07;2.50;;;27.80;87.10;;;;;;6277370;22;20023;-80
2023/08/26 13:35:21;;;;;;;3.15;2.40;;;27.80;86.20;;;;;;6256062;22;20012;-82
2023/08/26 13:38:07;;;;;;;5.50;2.67;;;27.80;86.00;;;;;;6276761;22;20468;-82
2023/08/26 13:40:53;;;;;;;3.67;2.22;;;27.70;86.50;;;;;;6251981;22;20065;-82
2023/08/26 13:43:39;;;;;;;5.72;2.63;;;27.80;86.40;;;;;;6275511;22;20034;-85
2023/08/26 13:46:25;;;;;;;4.90;3.42;;;27.80;86.40;;;;;;6274505;22;20004;-82
2023/08/26 13:49:10;;;;;;;4.50;3.15;;;27.80;86.20;;;;;;6252654;22;20012;-75
2023/08/26 13:51:56;;;;;;;6.35;2.38;;;27.80;85.80;;;;;;6274045;22;20041;-81
2023/08/26 13:54:44;;;;;;;4.05;2.58;;;27.80;85.90;;;;;;6275034;22;20012;-83
2023/08/26 13:57:30;;;;;;;2.97;2.30;;;27.80;85.20;;;;;;6274077;22;20008;-84
2023/08/26 14:00:16;;;;;;;3.70;2.80;;;27.80;85.10;;;;;;6274943;22;20034;-85
2023/08/26 14:03:03;;;;;;;2.95;2.17;;;27.80;84.40;;;;;;6252054;22;20000;-86
2023/08/26 14:05:51;;;;;;;4.68;2.53;;;27.70;83.90;;;;;;6272618;22;20011;-80
2023/08/26 14:08:37;;;;;;;4.78;2.75;;;27.70;83.40;;;;;;6275272;22;20425;-85
2023/08/26 14:11:25;;;;;;;4.63;3.10;;;27.60;83.10;;;;;;6274776;22;20351;-86
2023/08/26 14:14:11;;;;;;;4.70;2.88;;;27.50;82.80;;;;;;6271746;22;20477;-79
2023/08/26 14:16:57;;;;;;;4.30;2.47;;;27.40;82.40;;;;;;6252349;22;20012;-86
2023/08/26 14:19:44;;;;;;;4.22;2.45;;;27.30;82.30;;;;;;6275945;22;20020;-90
2023/08/26 14:22:29;;;;;;;7.50;2.80;;;27.30;82.70;;;;;;6273449;22;20083;-86
2023/08/26 14:25:15;;;;;;;4.40;2.92;;;27.20;82.50;;;;;;6277223;22;20030;-88
2023/08/26 14:28:01;;;;;;;4.85;2.20;;;27.20;82.40;;;;;;6254265;22;20038;-81
2023/08/26 14:30:51;;;;;;;3.92;2.35;;;27.10;82.10;;;;;;6274575;22;20026;-77